Time;durP1;ratioP1;P1;durP2;ratioP2;P2;SDS_P1;SDS_P2;PMS_P1;PMS_P2;Temp;Humidity;BMP_temperature;BMP_pressure;BME280_temperature;BME280_humidity;BME280_pressure;Samples;Min_cycle;Max_cycle;Signal;HPM_P1;HPM_P2
2023/12/09 00:00:36;;;;;;;0.60;0.60;;;-4.00;99.90;-1.90;96810.00;;;;5034465;28;20486;-81
2023/12/09 00:03:25;;;;;;;0.70;0.70;;;-4.00;99.90;-2.30;96805.00;;;;5022043;28;20440;-82
2023/12/09 00:06:13;;;;;;;0.50;0.50;;;-4.00;99.90;-2.10;96805.00;;;;5031512;28;20969;-81
2023/12/09 00:09:04;;;;;;;0.60;0.60;;;-4.00;99.90;-2.00;96806.00;;;;5032051;28;20476;-82
2023/12/09 00:11:53;;;;;;;0.70;0.70;;;-4.00;99.90;-2.00;96806.00;;;;5029957;28;20946;-82
2023/12/09 00:14:42;;;;;;;0.70;0.70;;;-4.10;99.90;-2.10;96809.00;;;;5030597;28;20435;-81
2023/12/09 00:17:30;;;;;;;0.80;0.80;;;-4.10;99.90;-2.50;96801.00;;;;5037049;28;20451;-81
2023/12/09 00:20:20;;;;;;;0.50;0.50;;;-4.10;99.90;-2.90;96797.00;;;;5036606;28;20459;-81
2023/12/09 00:23:08;;;;;;;0.47;0.47;;;-4.20;99.90;-2.80;96805.00;;;;5022565;28;20439;-81
2023/12/09 00:25:59;;;;;;;0.60;0.60;;;-4.20;99.90;-2.50;96798.00;;;;5030729;28;20460;-81
2023/12/09 00:28:48;;;;;;;0.70;0.70;;;-4.20;99.90;-2.30;96803.00;;;;5030406;28;20472;-81
2023/12/09 00:31:36;;;;;;;0.60;0.60;;;-4.30;99.90;-2.30;96807.00;;;;5034694;28;20824;-80
2023/12/09 00:34:25;;;;;;;0.60;0.60;;;-4.20;99.90;-2.00;96802.00;;;;5030592;28;20429;-81
2023/12/09 00:37:14;;;;;;;0.60;0.60;;;-4.10;99.90;-1.50;96813.00;;;;5030404;28;20432;-81
2023/12/09 00:40:04;;;;;;;0.40;0.40;;;-4.00;99.90;-1.80;96810.00;;;;5033734;28;20427;-81
2023/12/09 00:42:54;;;;;;;0.50;0.50;;;-4.10;99.90;-1.70;96804.00;;;;5022467;28;20965;-81
2023/12/09 00:45:43;;;;;;;0.70;0.70;;;-4.00;99.90;-1.60;96811.00;;;;5030734;28;20826;-80
2023/12/09 00:48:31;;;;;;;0.50;0.50;;;-3.80;99.90;-1.60;96801.00;;;;5030848;28;20475;-81
2023/12/09 00:51:20;;;;;;;0.50;0.50;;;-3.70;99.90;-1.60;96798.00;;;;5030951;28;20424;-80
2023/12/09 00:54:09;;;;;;;0.60;0.60;;;-3.80;99.90;-1.60;96794.00;;;;5022397;28;20802;-80
2023/12/09 00:56:58;;;;;;;0.50;0.50;;;-3.60;99.90;-1.30;96795.00;;;;5032766;28;20438;-81
2023/12/09 00:59:48;;;;;;;0.53;0.53;;;-3.60;99.90;-1.30;96799.00;;;;5038419;28;20447;-81
2023/12/09 01:02:38;;;;;;;0.60;0.60;;;-3.40;99.90;-1.40;96795.00;;;;5027606;28;20436;-81
2023/12/09 01:05:27;;;;;;;0.50;0.50;;;-3.60;99.90;-1.60;96799.00;;;;5037045;28;20471;-81
2023/12/09 01:08:16;;;;;;;0.67;0.67;;;-3.50;99.90;-1.40;96800.00;;;;5029607;28;20425;-80
2023/12/09 01:11:05;;;;;;;0.40;0.40;;;-3.60;99.90;-1.80;96791.00;;;;5028224;28;20432;-81
2023/12/09 01:13:54;;;;;;;0.60;0.60;;;-3.70;99.90;-1.80;96793.00;;;;5026417;28;20437;-81
2023/12/09 01:16:45;;;;;;;0.50;0.50;;;-3.70;99.90;-1.90;96788.00;;;;5024275;28;20832;-81
2023/12/09 01:19:33;;;;;;;0.50;0.50;;;-3.70;99.90;-2.00;96783.00;;;;5028011;28;20432;-81
2023/12/09 01:22:22;;;;;;;0.50;0.50;;;-3.80;99.90;-1.90;96794.00;;;;5032246;28;20444;-80
2023/12/09 01:25:11;;;;;;;0.67;0.67;;;-3.80;99.90;-2.00;96792.00;;;;5035330;28;20443;-81
2023/12/09 01:28:01;;;;;;;0.50;0.50;;;-3.90;99.90;-2.10;96789.00;;;;5033110;28;20424;-82
2023/12/09 01:30:50;;;;;;;0.80;0.80;;;-3.80;99.90;-1.60;96796.00;;;;5029253;28;20460;-81
2023/12/09 01:33:40;;;;;;;0.53;0.53;;;-3.70;99.90;-1.40;96791.00;;;;5036250;28;20444;-81
2023/12/09 01:36:29;;;;;;;0.60;0.60;;;-3.70;99.90;-1.40;96783.00;;;;5027231;28;20460;-81
2023/12/09 01:39:18;;;;;;;0.50;0.50;;;-3.70;99.90;-1.20;96779.00;;;;5033372;28;20424;-81
2023/12/09 01:42:08;;;;;;;0.40;0.40;;;-3.60;99.90;-1.50;96788.00;;;;5035844;28;20437;-81
2023/12/09 01:44:56;;;;;;;0.40;0.40;;;-3.50;99.90;-1.70;96776.00;;;;5028832;28;20463;-81
2023/12/09 01:47:45;;;;;;;0.53;0.53;;;-3.60;99.90;-1.70;96782.00;;;;5041672;28;20456;-81
2023/12/09 01:50:36;;;;;;;0.50;0.50;;;-3.60;99.90;-1.50;96777.00;;;;5033933;28;20467;-82
2023/12/09 01:53:25;;;;;;;0.43;0.43;;;-3.60;99.90;-1.50;96776.00;;;;5035333;28;20439;-81
2023/12/09 01:56:17;;;;;;;0.50;0.50;;;-3.50;99.90;-1.60;96776.00;;;;5029813;28;20456;-80
2023/12/09 01:59:07;;;;;;;0.50;0.50;;;-3.50;99.90;-2.10;96768.00;;;;5025631;28;20439;-81
2023/12/09 02:01:56;;;;;;;0.40;0.40;;;-3.70;99.90;-2.20;96777.00;;;;5033535;28;20967;-81
2023/12/09 02:04:45;;;;;;;0.70;0.70;;;-3.70;99.90;-1.90;96765.00;;;;5034471;28;20435;-82
2023/12/09 02:07:35;;;;;;;0.40;0.40;;;-3.70;99.90;-1.90;96762.00;;;;5032821;28;20450;-81
2023/12/09 02:10:24;;;;;;;0.40;0.40;;;-3.70;99.90;-1.50;96772.00;;;;5029769;28;20475;-80
2023/12/09 02:13:20;;;;;;;0.53;0.53;;;-3.60;99.90;-1.70;96770.00;;;;5035656;28;20933;-81
2023/12/09 02:16:16;;;;;;;0.50;0.50;;;-3.70;99.90;-1.60;96769.00;;;;5027020;28;20977;-81
2023/12/09 02:19:08;;;;;;;0.60;0.60;;;-3.60;99.90;-1.50;96759.00;;;;5023366;28;20445;-81
2023/12/09 02:21:58;;;;;;;0.40;0.40;;;-3.60;99.90;-1.40;96761.00;;;;5026351;28;20437;-81
2023/12/09 02:24:49;;;;;;;0.50;0.50;;;-3.60;99.90;-1.40;96753.00;;;;5030163;28;20455;-80
2023/12/09 02:27:44;;;;;;;0.50;0.50;;;-3.50;99.90;-1.20;96754.00;;;;5033038;28;20441;-81
2023/12/09 02:30:45;;;;;;;0.43;0.43;;;-3.30;99.90;-1.40;96752.00;;;;5028914;28;20479;-81
2023/12/09 02:33:36;;;;;;;0.43;0.43;;;-3.50;99.90;-1.30;96756.00;;;;5027902;28;21002;-81
2023/12/09 02:36:27;;;;;;;0.50;0.50;;;-3.40;99.90;-1.10;96764.00;;;;5029669;28;20521;-81
2023/12/09 02:39:20;;;;;;;0.50;0.50;;;-3.30;99.90;-1.20;96763.00;;;;5026500;28;20431;-81
2023/12/09 02:42:11;;;;;;;0.30;0.30;;;-3.40;99.90;-1.30;96748.00;;;;5026316;28;20432;-81
2023/12/09 02:45:00;;;;;;;0.60;0.60;;;-3.40;99.90;-1.20;96753.00;;;;5029677;28;20949;-81
2023/12/09 02:47:49;;;;;;;0.50;0.50;;;-3.40;99.90;-1.50;96739.00;;;;5033198;28;20428;-81
2023/12/09 02:50:38;;;;;;;0.60;0.60;;;-3.40;99.90;-1.30;96752.00;;;;5029852;28;20541;-81
2023/12/09 02:53:27;;;;;;;0.53;0.53;;;-3.40;99.90;-1.50;96744.00;;;;5035804;28;20443;-81
2023/12/09 02:56:16;;;;;;;0.50;0.50;;;-3.40;99.90;-1.90;96741.00;;;;5035855;28;20458;-81
2023/12/09 02:59:06;;;;;;;0.40;0.40;;;-3.50;99.90;-1.80;96740.00;;;;5033657;28;20935;-80
2023/12/09 03:01:55;;;;;;;0.33;0.33;;;-3.50;99.90;-1.30;96753.00;;;;5031455;28;20796;-80
2023/12/09 03:04:44;;;;;;;0.50;0.50;;;-3.50;99.90;-1.30;96748.00;;;;5033085;28;20440;-82
2023/12/09 03:07:33;;;;;;;0.40;0.40;;;-3.50;99.90;-1.10;96755.00;;;;5033057;28;20432;-80
2023/12/09 03:10:22;;;;;;;0.43;0.43;;;-3.30;99.90;-1.10;96757.00;;;;5039274;28;20477;-81
2023/12/09 03:13:11;;;;;;;0.50;0.50;;;-3.40;99.90;-0.90;96763.00;;;;5039619;28;20432;-81
2023/12/09 03:16:02;;;;;;;0.40;0.40;;;-3.40;99.90;-1.00;96764.00;;;;5039119;28;20988;-81
2023/12/09 03:18:51;;;;;;;0.47;0.47;;;-3.30;99.90;-1.00;96764.00;;;;5033129;28;20466;-81
2023/12/09 03:21:40;;;;;;;0.40;0.40;;;-3.30;99.90;-0.80;96765.00;;;;5031953;28;20466;-80
2023/12/09 03:24:28;;;;;;;0.60;0.60;;;-3.20;99.90;-0.80;96764.00;;;;5030667;28;20439;-81
2023/12/09 03:27:17;;;;;;;0.40;0.40;;;-3.20;99.90;-0.90;96765.00;;;;5028468;28;20444;-81
2023/12/09 03:30:08;;;;;;;0.50;0.50;;;-3.20;99.90;-0.90;96765.00;;;;5029909;28;20555;-81
2023/12/09 03:32:58;;;;;;;0.50;0.50;;;-3.20;99.90;-1.60;96756.00;;;;5039313;28;20440;-81
2023/12/09 03:35:47;;;;;;;0.40;0.40;;;-3.20;99.90;-1.30;96761.00;;;;5037129;28;20825;-80
2023/12/09 03:38:36;;;;;;;0.43;0.43;;;-3.20;99.90;-1.10;96772.00;;;;5030853;28;20809;-81
2023/12/09 03:41:25;;;;;;;0.40;0.40;;;-3.20;99.90;-1.20;96766.00;;;;5030789;28;20793;-80
2023/12/09 03:44:14;;;;;;;0.43;0.43;;;-3.20;99.90;-1.20;96770.00;;;;5030232;28;20811;-81
2023/12/09 03:47:03;;;;;;;0.40;0.40;;;-3.20;99.90;-1.30;96771.00;;;;5034846;28;20420;-81
2023/12/09 03:49:54;;;;;;;0.40;0.40;;;-3.20;99.90;-1.30;96771.00;;;;5031066;28;20433;-81
2023/12/09 03:52:42;;;;;;;0.30;0.30;;;-3.30;99.90;-1.20;96761.00;;;;5035807;28;20443;-82
2023/12/09 03:55:31;;;;;;;0.40;0.40;;;-3.20;99.90;-1.20;96772.00;;;;5031825;28;20463;-81
2023/12/09 03:58:22;;;;;;;0.60;0.60;;;-3.20;99.90;-1.00;96774.00;;;;5036754;28;20424;-80
2023/12/09 04:01:11;;;;;;;0.50;0.50;;;-3.70;99.90;-1.20;96779.00;;;;5025899;28;20448;-81
2023/12/09 04:03:59;;;;;;;0.60;0.60;;;-3.10;99.90;-1.40;96781.00;;;;5029721;28;20422;-81
2023/12/09 04:06:51;;;;;;;0.40;0.40;;;-3.20;99.90;-1.00;96781.00;;;;5028322;28;20460;-81
2023/12/09 04:09:41;;;;;;;0.60;0.60;;;-3.20;99.90;-1.10;96779.00;;;;5027856;28;20800;-81
2023/12/09 04:12:30;;;;;;;0.40;0.40;;;-3.10;99.90;-0.70;96794.00;;;;5032125;28;20432;-81
2023/12/09 04:15:19;;;;;;;0.43;0.43;;;-3.10;99.90;-0.60;96793.00;;;;5036470;28;21143;-81
2023/12/09 04:18:08;;;;;;;0.47;0.47;;;-3.00;99.90;-0.70;96795.00;;;;5037479;28;20973;-80
2023/12/09 04:20:57;;;;;;;0.30;0.30;;;-3.00;99.90;-0.70;96800.00;;;;5040087;28;20485;-80
2023/12/09 04:23:47;;;;;;;0.40;0.40;;;-2.90;99.90;-0.60;96806.00;;;;5029139;28;20984;-81
2023/12/09 04:26:36;;;;;;;0.40;0.40;;;-2.90;99.90;-0.40;96813.00;;;;5042385;28;20447;-81
2023/12/09 04:29:25;;;;;;;0.50;0.50;;;-2.80;99.90;-0.40;96821.00;;;;5029823;28;20424;-81
2023/12/09 04:32:14;;;;;;;0.40;0.40;;;-2.80;99.90;-0.70;96805.00;;;;5028845;28;20460;-80
2023/12/09 04:35:03;;;;;;;0.43;0.43;;;-2.80;99.90;-0.60;96810.00;;;;5029428;28;21012;-81
2023/12/09 04:37:52;;;;;;;0.50;0.50;;;-2.80;99.90;-0.60;96814.00;;;;5037327;28;20428;-81
2023/12/09 04:40:43;;;;;;;0.50;0.50;;;-2.70;99.90;-0.60;96812.00;;;;5029584;28;20432;-80
2023/12/09 04:43:32;;;;;;;0.40;0.40;;;-2.70;99.90;-0.40;96824.00;;;;5026022;28;20802;-80
2023/12/09 04:46:21;;;;;;;0.50;0.50;;;-2.70;99.90;-0.70;96816.00;;;;5027980;28;20468;-81
2023/12/09 04:49:10;;;;;;;0.40;0.40;;;-2.80;99.90;-0.70;96805.00;;;;5032169;28;20434;-80
2023/12/09 04:51:59;;;;;;;0.50;0.50;;;-2.80;99.90;-0.30;96815.00;;;;5040290;28;20459;-81
2023/12/09 04:54:48;;;;;;;0.40;0.40;;;-2.70;99.90;-0.40;96821.00;;;;5032891;28;20424;-80
2023/12/09 04:57:38;;;;;;;0.40;0.40;;;-2.70;99.90;-0.70;96818.00;;;;5035815;28;21231;-80
2023/12/09 05:00:27;;;;;;;0.50;0.50;;;-2.70;99.90;-0.40;96821.00;;;;5035195;28;20431;-80
2023/12/09 05:03:16;;;;;;;0.40;0.40;;;-2.70;99.90;-0.10;96837.00;;;;5036243;28;20435;-81
2023/12/09 05:06:06;;;;;;;0.40;0.40;;;-2.60;99.90;-0.50;96830.00;;;;5025679;28;20957;-81
2023/12/09 05:08:55;;;;;;;0.43;0.43;;;-2.60;99.90;-0.60;96838.00;;;;5029037;28;20426;-81
2023/12/09 05:11:44;;;;;;;0.40;0.40;;;-2.60;99.90;-0.60;96816.00;;;;5023515;28;20456;-80
2023/12/09 05:14:35;;;;;;;0.50;0.50;;;-2.60;99.90;-0.40;96826.00;;;;5029909;28;20432;-81
2023/12/09 05:17:24;;;;;;;0.50;0.50;;;-2.60;99.90;-0.40;96830.00;;;;5026302;28;20446;-80
2023/12/09 05:20:13;;;;;;;0.40;0.40;;;-2.60;99.90;-0.40;96830.00;;;;5027709;28;20451;-81
2023/12/09 05:23:02;;;;;;;0.55;0.55;;;-2.60;99.90;-0.40;96829.00;;;;5028475;28;20437;-81
2023/12/09 05:25:52;;;;;;;0.63;0.63;;;-2.60;99.90;-0.60;96835.00;;;;5030040;28;21398;-81
2023/12/09 05:28:41;;;;;;;0.50;0.50;;;-2.60;99.90;-0.40;96827.00;;;;5033155;28;20511;-81
2023/12/09 05:31:32;;;;;;;0.50;0.50;;;-2.60;99.90;-0.50;96840.00;;;;5025976;28;20466;-81
2023/12/09 05:34:20;;;;;;;0.50;0.50;;;-2.50;99.90;-0.40;96836.00;;;;5034169;28;20419;-81
2023/12/09 05:37:09;;;;;;;0.50;0.50;;;-2.50;99.90;-0.40;96841.00;;;;5035515;28;20428;-81
2023/12/09 05:39:58;;;;;;;0.50;0.50;;;-2.60;99.90;-0.40;96835.00;;;;5029241;28;20432;-81
2023/12/09 05:42:47;;;;;;;0.50;0.50;;;-2.60;99.90;-0.60;96841.00;;;;5038808;28;20428;-81
2023/12/09 05:45:36;;;;;;;0.50;0.50;;;-2.60;99.90;-0.60;96848.00;;;;5027966;28;20440;-81
2023/12/09 05:48:26;;;;;;;0.50;0.50;;;-2.60;99.90;-0.70;96836.00;;;;5030475;28;20501;-81
2023/12/09 05:51:15;;;;;;;0.40;0.40;;;-2.70;99.90;-0.60;96837.00;;;;5030101;28;20460;-81
2023/12/09 05:54:04;;;;;;;0.53;0.53;;;-2.60;99.90;-0.40;96843.00;;;;5040376;28;20424;-81
2023/12/09 05:56:53;;;;;;;0.40;0.40;;;-2.60;99.90;-0.50;96835.00;;;;5030642;28;20471;-81
2023/12/09 05:59:44;;;;;;;0.60;0.60;;;-2.60;99.90;-0.40;96842.00;;;;5027255;28;20856;-81
2023/12/09 06:02:33;;;;;;;0.50;0.50;;;-2.60;99.90;-0.30;96849.00;;;;5031227;28;20472;-80
2023/12/09 06:05:23;;;;;;;0.50;0.50;;;-2.50;99.90;-0.40;96847.00;;;;5027223;28;21029;-81
2023/12/09 06:08:12;;;;;;;0.40;0.40;;;-2.60;99.90;-0.50;96843.00;;;;5028280;28;20822;-81
2023/12/09 06:11:01;;;;;;;0.40;0.40;;;-2.50;99.90;-0.30;96835.00;;;;5027384;28;20444;-81
2023/12/09 06:13:50;;;;;;;0.40;0.40;;;-2.50;99.90;-0.20;96840.00;;;;5027681;28;20425;-81
2023/12/09 06:16:39;;;;;;;0.40;0.40;;;-2.50;99.90;-0.20;96845.00;;;;5041171;28;20464;-80
2023/12/09 06:19:28;;;;;;;0.40;0.40;;;-2.50;99.90;-0.20;96850.00;;;;5028803;28;20436;-80
2023/12/09 06:22:18;;;;;;;0.53;0.53;;;-2.40;99.90;-0.20;96831.00;;;;5026350;28;20441;-82
2023/12/09 06:25:08;;;;;;;0.40;0.40;;;-2.40;99.90;-0.10;96838.00;;;;5025438;28;20452;-82
2023/12/09 06:27:57;;;;;;;0.40;0.40;;;-2.40;99.90;0.10;96841.00;;;;5032986;28;20425;-81
2023/12/09 06:30:46;;;;;;;0.50;0.50;;;-2.40;99.90;0.30;96831.00;;;;5022517;28;20428;-81
2023/12/09 06:33:35;;;;;;;0.40;0.40;;;-2.30;99.90;0.30;96838.00;;;;5025399;28;20435;-80
2023/12/09 06:36:24;;;;;;;0.40;0.40;;;-2.30;99.90;0.10;96833.00;;;;5027423;28;20515;-81
2023/12/09 06:39:14;;;;;;;0.50;0.50;;;-2.20;99.90;0.10;96834.00;;;;5040640;28;20802;-81
2023/12/09 06:42:05;;;;;;;0.47;0.47;;;-2.30;99.90;-0.10;96848.00;;;;5028045;28;20454;-81
2023/12/09 06:44:54;;;;;;;0.60;0.60;;;-2.30;99.90;-0.10;96838.00;;;;5030358;28;20456;-81
2023/12/09 06:47:43;;;;;;;0.40;0.40;;;-2.30;99.90;-0.10;96839.00;;;;5038942;28;20823;-81
2023/12/09 06:50:32;;;;;;;0.50;0.50;;;-2.30;99.90;-0.30;96832.00;;;;5029593;28;20439;-81
2023/12/09 06:53:21;;;;;;;0.40;0.40;;;-2.30;99.90;-0.10;96841.00;;;;5028204;28;20468;-82
2023/12/09 06:56:19;;;;;;;0.40;0.40;;;-2.30;99.90;0.10;96840.00;;;;5031551;28;20455;-81
2023/12/09 06:59:09;;;;;;;0.40;0.40;;;-2.30;99.90;0.20;96835.00;;;;5027619;28;20447;-81
2023/12/09 07:01:58;;;;;;;0.50;0.50;;;-2.20;99.90;-0.10;96839.00;;;;5024898;28;20447;-81
2023/12/09 07:04:47;;;;;;;0.40;0.40;;;-2.20;99.90;-0.10;96846.00;;;;5021302;28;20829;-81
2023/12/09 07:07:36;;;;;;;0.40;0.40;;;-2.30;99.90;-0.20;96837.00;;;;5021076;28;20448;-81
2023/12/09 07:10:25;;;;;;;0.47;0.47;;;-2.20;99.90;-0.10;96843.00;;;;5025732;28;20455;-81
2023/12/09 07:13:15;;;;;;;0.40;0.40;;;-2.30;99.90;0.00;96825.00;;;;5027284;28;20871;-81
2023/12/09 07:16:06;;;;;;;0.30;0.30;;;-2.20;99.90;0.10;96822.00;;;;5024069;28;20554;-81
2023/12/09 07:18:58;;;;;;;0.40;0.40;;;-2.20;99.90;0.40;96847.00;;;;5019642;28;20464;-81
2023/12/09 07:21:48;;;;;;;0.50;0.50;;;-2.10;99.90;0.50;96848.00;;;;5023485;28;20440;-82
2023/12/09 07:24:37;;;;;;;0.33;0.33;;;-2.10;99.90;0.30;96841.00;;;;5025529;28;20440;-81
2023/12/09 07:27:25;;;;;;;0.40;0.40;;;-2.10;99.90;0.40;96848.00;;;;5027670;28;20448;-82
2023/12/09 07:30:16;;;;;;;0.40;0.40;;;-2.00;99.90;0.40;96854.00;;;;5023380;28;20433;-81
2023/12/09 07:33:05;;;;;;;0.40;0.40;;;-2.00;99.90;0.40;96863.00;;;;5025401;28;20869;-81
2023/12/09 07:35:54;;;;;;;0.40;0.40;;;-1.90;99.90;0.50;96850.00;;;;5028380;28;20468;-81
2023/12/09 07:38:43;;;;;;;0.40;0.40;;;-1.90;99.90;0.50;96843.00;;;;5030639;28;20448;-81
2023/12/09 07:41:32;;;;;;;0.50;0.50;;;-1.90;99.90;0.40;96846.00;;;;5025872;28;20428;-82
2023/12/09 07:44:21;;;;;;;0.60;0.60;;;-1.90;99.90;0.20;96841.00;;;;5027370;28;20460;-82
2023/12/09 07:47:11;;;;;;;0.40;0.40;;;-1.90;99.90;0.50;96841.00;;;;5027800;28;20930;-82
2023/12/09 07:50:00;;;;;;;0.40;0.40;;;-1.90;99.90;0.70;96836.00;;;;5030438;28;20950;-82
2023/12/09 07:52:49;;;;;;;0.43;0.43;;;-1.80;99.90;0.90;96845.00;;;;5029188;28;20517;-82
2023/12/09 07:55:38;;;;;;;0.40;0.40;;;-1.70;99.90;1.00;96853.00;;;;5029222;28;20467;-82
2023/12/09 07:58:27;;;;;;;0.40;0.40;;;-1.60;99.90;0.90;96857.00;;;;5031342;28;20447;-82
2023/12/09 08:01:16;;;;;;;0.43;0.43;;;-1.50;99.90;0.80;96859.00;;;;5031202;28;20801;-81
2023/12/09 08:04:06;;;;;;;0.53;0.53;;;-1.50;99.90;1.00;96850.00;;;;5025227;28;20432;-81
2023/12/09 08:06:55;;;;;;;0.50;0.50;;;-1.50;99.90;1.40;96859.00;;;;5024768;28;20859;-82
2023/12/09 08:09:44;;;;;;;0.50;0.50;;;-1.40;99.90;1.30;96849.00;;;;5028049;28;20823;-81
2023/12/09 08:12:33;;;;;;;0.40;0.40;;;-1.30;99.90;1.10;96847.00;;;;5029680;28;20472;-81
2023/12/09 08:15:22;;;;;;;0.40;0.40;;;-1.30;99.90;1.10;96846.00;;;;5029184;28;20460;-81
2023/12/09 08:18:11;;;;;;;0.37;0.37;;;-1.30;99.90;1.10;96859.00;;;;5027162;28;20451;-82
2023/12/09 08:21:01;;;;;;;0.30;0.30;;;-1.30;99.90;1.20;96853.00;;;;5024724;28;21036;-82
2023/12/09 08:23:50;;;;;;;0.50;0.50;;;-1.30;99.90;1.50;96854.00;;;;5026157;28;20451;-82
2023/12/09 08:26:40;;;;;;;0.53;0.53;;;-1.20;99.90;1.50;96849.00;;;;5025770;28;20483;-82
2023/12/09 08:29:29;;;;;;;0.67;0.67;;;-1.10;99.90;1.40;96855.00;;;;5026757;28;20977;-82
2023/12/09 08:32:17;;;;;;;0.47;0.47;;;-1.10;99.90;1.30;96857.00;;;;5023898;28;20448;-81
2023/12/09 08:35:08;;;;;;;0.50;0.50;;;-1.10;99.90;1.10;96854.00;;;;5026192;28;20460;-82
2023/12/09 08:37:58;;;;;;;0.50;0.50;;;-1.10;99.90;1.10;96864.00;;;;5026101;28;20464;-82
2023/12/09 08:40:47;;;;;;;0.40;0.40;;;-1.10;99.90;1.20;96859.00;;;;5037229;28;20440;-82
2023/12/09 08:43:36;;;;;;;0.40;0.40;;;-1.10;99.90;1.20;96864.00;;;;5028246;28;20447;-82
2023/12/09 08:46:25;;;;;;;0.43;0.43;;;-1.10;99.90;1.30;96873.00;;;;5025611;28;20452;-82
2023/12/09 08:49:14;;;;;;;0.40;0.40;;;-1.10;99.90;1.50;96871.00;;;;5029980;28;20984;-82
2023/12/09 08:52:03;;;;;;;0.43;0.43;;;-1.10;99.90;1.70;96875.00;;;;5030528;28;20501;-81
2023/12/09 08:54:54;;;;;;;0.53;0.53;;;-1.00;99.90;1.90;96881.00;;;;5026138;28;21013;-82
2023/12/09 08:57:45;;;;;;;0.63;0.63;;;-0.90;99.90;1.90;96889.00;;;;5028015;28;20448;-81
2023/12/09 09:00:34;;;;;;;0.30;0.30;;;-0.80;99.90;2.10;96897.00;;;;5027045;28;20444;-82
2023/12/09 09:03:23;;;;;;;0.30;0.30;;;-0.70;99.90;2.30;96887.00;;;;5025383;28;20426;-82
2023/12/09 09:06:12;;;;;;;0.40;0.40;;;-0.60;99.90;2.30;96882.00;;;;5026211;28;20981;-81
2023/12/09 09:09:01;;;;;;;0.40;0.40;;;-0.60;99.90;2.50;96889.00;;;;5023210;28;20503;-81
2023/12/09 09:11:51;;;;;;;0.60;0.60;;;-0.50;99.90;2.50;96885.00;;;;5025397;28;20444;-82
2023/12/09 09:14:40;;;;;;;0.50;0.50;;;-0.40;99.90;2.60;96886.00;;;;5028501;28;20995;-81
2023/12/09 09:17:30;;;;;;;0.40;0.40;;;-0.30;99.90;2.70;96887.00;;;;5027223;28;20462;-81
2023/12/09 09:20:18;;;;;;;0.40;0.40;;;-0.30;99.90;2.90;96878.00;;;;5024573;28;20448;-81
2023/12/09 09:23:07;;;;;;;0.30;0.30;;;-0.20;99.90;3.10;96886.00;;;;5023832;28;20444;-81
2023/12/09 09:25:56;;;;;;;0.60;0.60;;;-0.10;99.90;3.10;96867.00;;;;5026542;28;20264;-81
2023/12/09 09:28:46;;;;;;;0.50;0.50;;;0.10;99.90;2.60;96874.00;;;;5027239;28;20444;-81
2023/12/09 09:31:35;;;;;;;0.40;0.40;;;0.10;99.90;2.70;96871.00;;;;5027570;28;20458;-81
2023/12/09 09:34:24;;;;;;;0.43;0.43;;;0.10;99.90;2.60;96863.00;;;;5027133;28;20486;-83
2023/12/09 09:37:15;;;;;;;0.40;0.40;;;0.10;99.90;2.80;96875.00;;;;5024688;28;20444;-82
2023/12/09 09:40:06;;;;;;;0.50;0.50;;;0.10;99.90;3.00;96873.00;;;;5022635;28;20471;-82
2023/12/09 09:42:58;;;;;;;0.30;0.30;;;0.20;99.90;3.00;96870.00;;;;5020199;28;21161;-82
2023/12/09 09:45:49;;;;;;;0.50;0.50;;;0.20;99.90;2.80;96874.00;;;;5024697;28;20452;-82
2023/12/09 09:48:39;;;;;;;0.33;0.33;;;0.20;99.90;2.90;96864.00;;;;5016584;28;20463;-82
2023/12/09 09:51:31;;;;;;;0.40;0.40;;;0.30;99.90;3.10;96858.00;;;;5026889;28;20448;-83
2023/12/09 09:54:22;;;;;;;0.30;0.30;;;0.30;99.90;2.70;96839.00;;;;5028465;28;22035;-83
2023/12/09 09:57:12;;;;;;;0.30;0.30;;;0.30;99.90;2.50;96849.00;;;;5025105;28;20437;-82
2023/12/09 10:00:12;;;;;;;0.40;0.40;;;0.20;99.90;2.80;96839.00;;;;5024665;28;20455;-83
2023/12/09 10:03:03;;;;;;;0.50;0.50;;;0.30;99.90;3.50;96838.00;;;;5024634;28;20444;-83
2023/12/09 10:05:53;;;;;;;0.57;0.57;;;0.40;99.90;2.90;96833.00;;;;5024340;28;20533;-83
2023/12/09 10:08:42;;;;;;;0.30;0.30;;;0.40;99.90;2.90;96826.00;;;;5022970;28;20432;-82
2023/12/09 10:11:30;;;;;;;0.30;0.30;;;0.40;99.90;2.80;96816.00;;;;5027185;28;20445;-83
2023/12/09 10:14:19;;;;;;;0.40;0.40;;;0.40;99.90;2.70;96813.00;;;;5028186;28;20505;-82
2023/12/09 10:17:09;;;;;;;0.40;0.40;;;0.40;99.90;2.60;96810.00;;;;5027163;28;20436;-82
2023/12/09 10:20:01;;;;;;;0.40;0.40;;;0.30;99.90;3.00;96821.00;;;;5025776;28;20448;-83
2023/12/09 10:22:51;;;;;;;0.40;0.40;;;0.30;99.90;3.40;96804.00;;;;5031007;28;20463;-82
2023/12/09 10:25:41;;;;;;;0.40;0.40;;;0.50;99.90;3.60;96801.00;;;;5029501;28;20460;-81
2023/12/09 10:28:30;;;;;;;0.30;0.30;;;0.70;99.90;3.70;96797.00;;;;5031078;28;20482;-83
2023/12/09 10:31:20;;;;;;;0.40;0.40;;;0.90;99.90;4.40;96784.00;;;;5026202;28;20444;-82
2023/12/09 10:34:12;;;;;;;0.40;0.40;;;1.30;99.90;4.60;96786.00;;;;5029888;28;20542;-83
2023/12/09 10:37:03;;;;;;;0.37;0.37;;;1.90;99.90;5.30;96768.00;;;;5034993;28;20489;-82
2023/12/09 10:39:52;;;;;;;0.40;0.40;;;2.50;99.90;5.50;96760.00;;;;5029222;28;20502;-83
2023/12/09 10:42:41;;;;;;;0.53;0.53;;;3.30;99.90;6.00;96766.00;;;;5024031;28;20428;-83
2023/12/09 10:45:30;;;;;;;0.40;0.40;;;4.20;99.90;6.80;96749.00;;;;5031342;28;20221;-82
2023/12/09 10:48:19;;;;;;;0.50;0.50;;;5.10;99.90;7.00;96752.00;;;;5024692;28;20191;-82
2023/12/09 10:51:08;;;;;;;0.40;0.40;;;6.00;99.90;8.20;96754.00;;;;5033630;28;20207;-83
2023/12/09 10:53:58;;;;;;;0.40;0.40;;;6.80;99.90;8.60;96756.00;;;;5026903;28;20223;-83
2023/12/09 10:56:47;;;;;;;0.60;0.60;;;7.60;99.90;8.90;96749.00;;;;5030592;28;20213;-84
2023/12/09 10:59:37;;;;;;;0.40;0.40;;;8.00;99.90;9.20;96748.00;;;;5032753;28;20208;-81
2023/12/09 11:02:28;;;;;;;0.50;0.50;;;8.40;99.90;8.40;96750.00;;;;5034021;28;20205;-81
2023/12/09 11:05:17;;;;;;;0.37;0.37;;;8.50;99.60;7.90;96746.00;;;;5029872;28;20251;-80
2023/12/09 11:08:10;;;;;;;0.50;0.50;;;8.50;98.90;8.10;96745.00;;;;5026253;28;20209;-81
2023/12/09 11:11:03;;;;;;;0.70;0.70;;;8.70;98.30;8.70;96743.00;;;;5029189;28;20601;-81
2023/12/09 11:13:54;;;;;;;0.80;0.80;;;8.80;97.30;8.50;96724.00;;;;5030412;28;20862;-84
2023/12/09 11:16:44;;;;;;;0.73;0.73;;;8.80;97.30;7.80;96725.00;;;;5032625;28;20217;-84
2023/12/09 11:19:33;;;;;;;0.40;0.40;;;8.80;96.80;7.40;96736.00;;;;5036927;28;20568;-82
2023/12/09 11:22:22;;;;;;;0.53;0.53;;;8.70;96.40;8.70;96726.00;;;;5033448;28;20616;-82
2023/12/09 11:25:13;;;;;;;0.47;0.47;;;8.80;96.50;8.60;96732.00;;;;5033247;28;20199;-82
2023/12/09 11:28:05;;;;;;;0.40;0.40;;;8.90;96.40;10.40;96724.00;;;;5026435;28;20679;-81
2023/12/09 11:30:57;;;;;;;0.60;0.60;;;9.10;96.90;9.30;96724.00;;;;5033774;28;20202;-81
2023/12/09 11:33:47;;;;;;;0.70;0.70;;;8.90;94.80;10.30;96721.00;;;;5033983;28;20205;-81
2023/12/09 11:36:38;;;;;;;0.60;0.60;;;9.00;96.00;10.50;96722.00;;;;5035095;28;20224;-80
2023/12/09 11:39:28;;;;;;;1.10;1.10;;;9.30;95.50;8.70;96706.00;;;;5031384;28;20745;-80
2023/12/09 11:42:19;;;;;;;1.30;1.27;;;9.40;95.00;9.50;96698.00;;;;5032216;28;20231;-80
2023/12/09 11:45:11;;;;;;;1.40;1.20;;;9.60;94.70;10.60;96701.00;;;;5029814;28;20225;-80
2023/12/09 11:48:03;;;;;;;3.27;1.77;;;9.90;94.70;11.20;96706.00;;;;5027387;28;20212;-80
2023/12/09 11:50:53;;;;;;;13.37;5.47;;;10.40;94.00;10.70;96700.00;;;;5035854;28;20236;-81
2023/12/09 11:53:54;;;;;;;5.70;2.20;;;10.70;92.80;9.50;96684.00;;;;5030972;28;20212;-80
2023/12/09 11:56:43;;;;;;;10.87;3.93;;;10.60;92.40;10.10;96666.00;;;;5024589;28;20251;-80
2023/12/09 11:59:32;;;;;;;11.13;4.80;;;10.40;92.30;9.10;96680.00;;;;5036967;28;20201;-80
2023/12/09 12:02:22;;;;;;;12.73;4.30;;;10.20;92.10;9.10;96677.00;;;;5037619;28;20209;-80
2023/12/09 12:05:12;;;;;;;9.57;5.13;;;9.80;92.50;9.40;96660.00;;;;5036691;28;20217;-79
2023/12/09 12:08:01;;;;;;;5.57;2.17;;;9.60;92.80;9.40;96673.00;;;;5036661;28;20217;-80
2023/12/09 12:10:50;;;;;;;12.20;4.57;;;9.40;92.90;8.90;96656.00;;;;5035878;28;20205;-80
2023/12/09 12:13:40;;;;;;;5.43;2.20;;;9.30;93.60;8.10;96653.00;;;;5034814;28;20205;-81
2023/12/09 12:16:29;;;;;;;3.70;1.97;;;9.00;93.80;8.60;96647.00;;;;5036859;28;20225;-80
2023/12/09 12:19:20;;;;;;;3.63;2.17;;;8.40;94.80;8.60;96644.00;;;;5026929;28;20217;-79
2023/12/09 12:22:09;;;;;;;2.60;1.80;;;8.30;95.40;8.30;96650.00;;;;5023825;28;20621;-80
2023/12/09 12:24:58;;;;;;;3.37;2.27;;;8.20;95.50;8.80;96648.00;;;;5033286;28;20218;-80
2023/12/09 12:27:47;;;;;;;4.27;2.83;;;8.20;95.70;9.00;96693.00;;;;5027924;28;20209;-80
2023/12/09 12:30:36;;;;;;;2.20;1.53;;;8.20;95.40;9.40;96674.00;;;;5033261;28;20236;-80
2023/12/09 12:33:26;;;;;;;1.97;1.50;;;8.40;95.10;9.20;96650.00;;;;5032126;28;20216;-80
2023/12/09 12:36:18;;;;;;;2.87;2.00;;;8.50;95.50;10.70;96659.00;;;;5037284;28;20225;-80
2023/12/09 12:39:08;;;;;;;1.33;1.20;;;8.80;95.80;11.30;96664.00;;;;5023761;28;20213;-80